createdAt,value
2023-05-22T00:02:39.105Z,8.23
2023-05-22T00:05:24.880Z,7.70
2023-05-22T00:08:11.765Z,8.90
2023-05-22T00:10:57.091Z,8.63
2023-05-22T00:13:42.329Z,8.40
2023-05-22T00:16:27.881Z,9.63
2023-05-22T00:19:16.800Z,8.27
2023-05-22T00:22:02.145Z,8.47
2023-05-22T00:24:47.984Z,7.57
2023-05-22T00:27:34.580Z,7.83
2023-05-22T00:30:20.084Z,7.57
2023-05-22T00:33:05.735Z,8.27
2023-05-22T00:35:51.345Z,7.50
2023-05-22T00:38:37.864Z,8.43
2023-05-22T00:41:23.131Z,9.00
2023-05-22T00:44:08.914Z,7.93
2023-05-22T00:46:54.005Z,7.67
2023-05-22T00:49:39.873Z,8.87
2023-05-22T00:52:25.655Z,7.70
2023-05-22T00:55:12.584Z,7.80
2023-05-22T00:57:57.897Z,8.47
2023-05-22T01:00:43.867Z,7.63
2023-05-22T01:03:30.006Z,7.20
2023-05-22T01:06:18.006Z,8.47
2023-05-22T01:09:04.556Z,8.40
2023-05-22T01:12:09.364Z,7.60
2023-05-22T01:15:01.117Z,9.83
2023-05-22T01:18:22.247Z,7.87
2023-05-22T01:21:30.201Z,8.53
2023-05-22T01:24:54.151Z,7.63
2023-05-22T01:28:38.117Z,8.45
2023-05-22T01:31:29.892Z,10.55
2023-05-22T01:34:17.379Z,7.67
2023-05-22T01:37:04.086Z,6.97
2023-05-22T01:39:51.828Z,7.33
2023-05-22T01:42:41.108Z,7.47
2023-05-22T01:45:26.293Z,7.37
2023-05-22T01:48:12.483Z,7.30
2023-05-22T01:51:03.819Z,8.50
2023-05-22T01:54:01.381Z,7.03
2023-05-22T01:57:22.013Z,8.80
2023-05-22T02:00:14.167Z,8.13
2023-05-22T02:03:16.647Z,7.80
2023-05-22T02:06:06.979Z,8.57
2023-05-22T02:08:54.389Z,8.07
2023-05-22T02:11:41.473Z,8.10
2023-05-22T02:14:27.363Z,7.53
2023-05-22T02:17:13.121Z,7.27
2023-05-22T02:19:58.473Z,6.97
2023-05-22T02:22:46.780Z,8.60
2023-05-22T02:25:32.172Z,8.70
2023-05-22T02:28:18.727Z,7.67
2023-05-22T02:31:05.877Z,9.27
2023-05-22T02:33:52.073Z,7.33
2023-05-22T02:36:38.461Z,7.40
2023-05-22T02:39:24.113Z,7.77
2023-05-22T02:42:09.429Z,7.13
2023-05-22T02:44:54.608Z,8.43
2023-05-22T02:47:40.916Z,9.83
2023-05-22T02:50:26.363Z,6.50
2023-05-22T02:53:11.591Z,6.90
2023-05-22T02:55:58.914Z,7.57
2023-05-22T02:58:44.455Z,9.67
2023-05-22T03:01:30.619Z,9.33
2023-05-22T03:04:16.350Z,10.77
2023-05-22T03:07:01.780Z,10.23
2023-05-22T03:09:47.308Z,8.23
2023-05-22T03:12:33.199Z,11.40
2023-05-22T03:15:18.823Z,8.93
2023-05-22T03:18:04.629Z,9.67
2023-05-22T03:20:50.487Z,8.93
2023-05-22T03:23:35.770Z,7.20
2023-05-22T03:26:21.416Z,7.00
2023-05-22T03:29:06.883Z,8.37
2023-05-22T03:31:53.089Z,8.30
2023-05-22T03:34:38.341Z,8.00
2023-05-22T03:37:26.973Z,8.37
2023-05-22T03:40:12.812Z,8.03
2023-05-22T03:42:58.052Z,9.70
2023-05-22T03:45:43.891Z,9.53
2023-05-22T03:48:31.355Z,8.60
2023-05-22T03:51:19.989Z,9.20
2023-05-22T03:54:05.829Z,9.57
2023-05-22T03:56:51.707Z,10.67
2023-05-22T03:59:40.503Z,9.97
2023-05-22T04:02:30.152Z,11.43
2023-05-22T04:05:16.589Z,10.10
2023-05-22T04:08:02.515Z,9.77
2023-05-22T04:10:48.573Z,12.03
2023-05-22T04:13:35.198Z,13.80
2023-05-22T04:16:22.264Z,57.27
2023-05-22T04:19:10.076Z,16.07
2023-05-22T04:21:57.934Z,10.17
2023-05-22T04:24:43.209Z,12.87
2023-05-22T04:27:29.771Z,11.30
2023-05-22T04:30:17.130Z,11.97
2023-05-22T04:33:05.457Z,13.50
2023-05-22T04:35:51.550Z,12.27
2023-05-22T04:38:37.418Z,13.37
2023-05-22T04:41:26.420Z,10.80
2023-05-22T04:44:12.190Z,11.33
2023-05-22T04:46:57.686Z,12.37
2023-05-22T04:49:43.751Z,11.37
2023-05-22T04:52:29.299Z,10.90
2023-05-22T04:55:14.853Z,13.30
2023-05-22T04:58:00.410Z,13.27
2023-05-22T05:00:45.735Z,12.47
2023-05-22T05:03:31.029Z,13.83
2023-05-22T05:06:17.356Z,9.73
2023-05-22T05:09:02.436Z,32.53
2023-05-22T05:11:47.790Z,12.80
2023-05-22T05:14:33.476Z,20.67
2023-05-22T05:17:18.798Z,17.77
2023-05-22T05:20:07.054Z,23.10
2023-05-22T05:22:52.755Z,17.87
2023-05-22T05:25:39.285Z,17.90
2023-05-22T05:28:25.275Z,23.30
2023-05-22T05:31:11.829Z,20.87
2023-05-22T05:34:26.592Z,20.40
2023-05-22T05:37:17.427Z,22.10
2023-05-22T05:40:05.414Z,21.37
2023-05-22T05:42:51.244Z,18.83
2023-05-22T05:45:42.557Z,21.80
2023-05-22T05:48:28.858Z,22.30
2023-05-22T05:51:14.528Z,21.90
2023-05-22T05:54:01.195Z,16.80
2023-05-22T05:56:47.008Z,17.30
2023-05-22T05:59:32.661Z,19.53
2023-05-22T06:02:37.748Z,18.37
2023-05-22T06:05:24.832Z,19.03
2023-05-22T06:11:05.547Z,17.73
2023-05-22T06:13:54.890Z,18.60
2023-05-22T06:16:40.808Z,16.17
2023-05-22T06:19:26.083Z,17.83
2023-05-22T06:22:14.306Z,17.17
2023-05-22T06:25:01.955Z,16.43
2023-05-22T06:27:50.298Z,17.23
2023-05-22T06:30:43.580Z,13.93
2023-05-22T06:33:34.383Z,16.33
2023-05-22T06:36:20.330Z,13.13
2023-05-22T06:39:06.971Z,15.30
2023-05-22T06:42:12.753Z,14.17
2023-05-22T06:45:19.705Z,12.63
2023-05-22T06:48:19.882Z,13.30
2023-05-22T06:51:18.698Z,14.37
2023-05-22T06:54:09.570Z,13.30
2023-05-22T06:56:56.952Z,14.03
2023-05-22T06:59:45.319Z,11.60
2023-05-22T07:02:44.590Z,13.50
2023-05-22T07:05:44.394Z,12.20
2023-05-22T07:08:30.740Z,12.70
2023-05-22T07:11:16.549Z,13.00
2023-05-22T07:14:02.719Z,11.47
2023-05-22T07:16:48.208Z,13.20
2023-05-22T07:19:39.923Z,12.93
2023-05-22T07:22:25.236Z,12.13
2023-05-22T07:25:10.636Z,12.60
2023-05-22T07:27:58.287Z,12.40
2023-05-22T07:30:44.460Z,12.33
2023-05-22T07:33:29.723Z,11.20
2023-05-22T07:36:16.748Z,10.67
2023-05-22T07:39:02.315Z,9.77
2023-05-22T07:41:50.765Z,10.23
2023-05-22T07:44:37.768Z,11.23
2023-05-22T07:47:23.858Z,13.67
2023-05-22T07:50:09.758Z,11.43
2023-05-22T07:52:58.637Z,9.80
2023-05-22T07:55:44.324Z,10.23
2023-05-22T07:58:29.769Z,10.67
2023-05-22T08:01:18.358Z,10.20
2023-05-22T08:04:04.708Z,9.87
2023-05-22T08:06:50.808Z,9.37
2023-05-22T08:09:36.317Z,10.43
2023-05-22T08:12:21.659Z,9.20
2023-05-22T08:15:07.869Z,10.83
2023-05-22T08:17:53.567Z,10.37
2023-05-22T08:20:39.004Z,9.03
2023-05-22T08:23:24.624Z,9.47
2023-05-22T08:26:09.879Z,8.13
2023-05-22T08:28:55.265Z,8.60
2023-05-22T08:31:40.752Z,11.90
2023-05-22T08:34:26.566Z,7.77
2023-05-22T08:37:14.107Z,10.13
2023-05-22T08:39:59.659Z,8.90
2023-05-22T08:42:45.071Z,9.07
2023-05-22T08:45:34.137Z,8.30
2023-05-22T08:48:22.275Z,9.33
2023-05-22T08:51:08.134Z,8.13
2023-05-22T08:53:56.513Z,9.23
2023-05-22T08:56:52.986Z,8.87
2023-05-22T08:59:43.187Z,8.73
2023-05-22T09:02:28.863Z,8.80
2023-05-22T09:05:14.756Z,8.50
2023-05-22T09:08:16.147Z,7.90
2023-05-22T09:11:05.949Z,7.53
2023-05-22T09:13:54.128Z,9.00
2023-05-22T09:16:47.218Z,9.07
2023-05-22T09:19:32.664Z,7.73
2023-05-22T09:22:18.599Z,7.83
2023-05-22T09:25:04.681Z,8.00
2023-05-22T09:27:50.184Z,8.53
2023-05-22T09:30:36.525Z,7.63
2023-05-22T09:33:23.312Z,7.50
2023-05-22T09:36:09.321Z,6.43
2023-05-22T09:38:54.644Z,6.77
2023-05-22T09:41:40.191Z,7.67
2023-05-22T09:44:26.962Z,7.20
2023-05-22T09:47:12.698Z,8.47
2023-05-22T09:50:01.160Z,7.50
2023-05-22T09:52:49.711Z,6.67
2023-05-22T09:55:36.812Z,5.57
2023-05-22T09:58:26.036Z,6.70
2023-05-22T10:01:13.865Z,6.50
2023-05-22T10:04:00.365Z,6.40
2023-05-22T10:06:51.954Z,7.80
2023-05-22T10:09:40.735Z,5.20
2023-05-22T10:12:28.637Z,5.67
2023-05-22T10:15:14.398Z,6.03
2023-05-22T10:18:00.758Z,5.70
2023-05-22T10:20:49.142Z,6.73
2023-05-22T10:23:35.582Z,7.70
2023-05-22T10:26:26.286Z,5.80
2023-05-22T10:29:22.424Z,7.10
2023-05-22T10:32:23.614Z,6.10
2023-05-22T10:35:27.912Z,5.80
2023-05-22T10:38:32.344Z,5.63
2023-05-22T10:41:18.611Z,6.33
2023-05-22T10:44:04.205Z,5.50
2023-05-22T10:46:52.799Z,7.00
2023-05-22T10:49:43.468Z,6.70
2023-05-22T10:52:28.959Z,5.70
2023-05-22T10:55:14.401Z,6.60
2023-05-22T10:58:12.993Z,7.60
2023-05-22T11:01:15.848Z,6.17
2023-05-22T11:04:04.287Z,6.63
2023-05-22T11:07:05.373Z,5.90
2023-05-22T11:10:00.651Z,6.20
2023-05-22T11:12:46.191Z,5.50
2023-05-22T11:15:32.392Z,7.73
2023-05-22T11:18:17.891Z,7.10
2023-05-22T11:21:04.521Z,6.03
2023-05-22T11:23:50.277Z,6.80
2023-05-22T11:26:36.036Z,8.07
2023-05-22T11:29:23.862Z,6.20
2023-05-22T11:32:10.798Z,6.03
2023-05-22T11:34:57.346Z,7.93
2023-05-22T11:37:42.779Z,5.50
2023-05-22T11:40:29.809Z,6.33
2023-05-22T11:43:15.431Z,6.37
2023-05-22T11:46:06.497Z,6.20
2023-05-22T11:48:52.068Z,5.77
2023-05-22T11:51:39.534Z,5.50
2023-05-22T11:54:24.799Z,5.90
2023-05-22T11:57:10.037Z,5.50
2023-05-22T11:59:55.384Z,6.03
2023-05-22T12:02:47.692Z,6.60
2023-05-22T12:05:33.520Z,6.50
2023-05-22T12:08:18.872Z,6.10
2023-05-22T12:11:06.528Z,5.20
2023-05-22T12:14:00.674Z,5.50
2023-05-22T12:16:52.449Z,5.97
2023-05-22T12:19:40.411Z,5.17
2023-05-22T12:22:29.683Z,6.20
2023-05-22T12:25:17.353Z,6.07
2023-05-22T12:28:02.568Z,5.20
2023-05-22T12:30:52.515Z,5.13
2023-05-22T12:33:40.068Z,6.70
2023-05-22T12:36:38.767Z,5.77
2023-05-22T12:39:24.137Z,5.47
2023-05-22T12:42:09.369Z,5.90
2023-05-22T12:44:56.390Z,6.30
2023-05-22T12:47:41.832Z,6.37
2023-05-22T12:50:27.121Z,5.30
2023-05-22T12:53:13.033Z,5.53
2023-05-22T12:55:58.347Z,5.53
2023-05-22T12:58:43.818Z,5.37
2023-05-22T13:01:29.413Z,6.67
2023-05-22T13:04:14.931Z,7.10
2023-05-22T13:07:01.100Z,5.43
2023-05-22T13:09:46.614Z,6.73
2023-05-22T13:12:34.755Z,5.93
2023-05-22T13:15:20.287Z,8.10
2023-05-22T13:18:05.830Z,5.97
2023-05-22T13:20:51.967Z,11.23
2023-05-22T13:23:37.310Z,5.87
2023-05-22T13:26:22.987Z,14.90
2023-05-22T13:29:08.200Z,17.17
2023-05-22T13:31:53.398Z,22.70
2023-05-22T13:34:38.973Z,20.70
2023-05-22T13:37:24.954Z,34.03
2023-05-22T13:40:10.871Z,17.77
2023-05-22T13:42:56.520Z,11.57
2023-05-22T13:45:41.960Z,9.87
2023-05-22T13:48:27.524Z,10.00
2023-05-22T13:51:12.773Z,11.33
2023-05-22T13:53:57.833Z,9.63
2023-05-22T13:56:43.529Z,6.70
2023-05-22T13:59:29.357Z,9.07
2023-05-22T14:02:14.932Z,10.73
2023-05-22T14:05:00.418Z,16.63
2023-05-22T14:07:45.732Z,13.00
2023-05-22T14:10:31.140Z,23.73
2023-05-22T14:13:16.294Z,16.03
2023-05-22T14:16:01.919Z,15.93
2023-05-22T14:18:47.808Z,29.83
2023-05-22T14:21:33.318Z,26.80
2023-05-22T14:24:18.703Z,20.43
2023-05-22T14:27:04.230Z,14.33
2023-05-22T14:29:49.820Z,14.37
2023-05-22T14:32:35.081Z,14.03
2023-05-22T14:35:20.331Z,13.20
2023-05-22T14:38:05.797Z,12.73
2023-05-22T14:40:52.017Z,11.37
2023-05-22T14:43:37.529Z,11.60
2023-05-22T14:46:22.861Z,11.50
2023-05-22T14:49:08.057Z,11.67
2023-05-22T14:51:54.575Z,12.83
2023-05-22T14:54:39.869Z,13.57
2023-05-22T14:57:25.304Z,13.37
2023-05-22T15:00:12.856Z,10.90
2023-05-22T15:02:58.779Z,10.07
2023-05-22T15:05:44.274Z,7.80
2023-05-22T15:08:29.373Z,10.97
2023-05-22T15:11:14.553Z,8.70
2023-05-22T15:13:59.897Z,9.70
2023-05-22T15:16:45.233Z,10.60
2023-05-22T15:19:30.553Z,7.97
2023-05-22T15:22:19.485Z,8.27
2023-05-22T15:25:06.739Z,9.63
2023-05-22T15:27:51.915Z,7.70
2023-05-22T15:30:38.909Z,7.80
2023-05-22T15:33:24.481Z,7.17
2023-05-22T15:36:09.996Z,9.63
2023-05-22T15:38:55.448Z,9.10
2023-05-22T15:41:41.968Z,10.93
2023-05-22T15:44:27.285Z,12.63
2023-05-22T15:47:12.637Z,12.70
2023-05-22T15:49:58.009Z,10.47
2023-05-22T15:52:43.293Z,8.50
2023-05-22T15:55:28.696Z,16.93
2023-05-22T15:58:13.979Z,13.30
2023-05-22T16:00:59.865Z,9.47
2023-05-22T16:03:45.506Z,8.97
2023-05-22T16:06:31.276Z,8.67
2023-05-22T16:09:18.563Z,7.67
2023-05-22T16:12:04.589Z,7.27
2023-05-22T16:14:50.937Z,7.97
2023-05-22T16:17:36.455Z,8.60
2023-05-22T16:20:22.714Z,14.03
2023-05-22T16:23:08.104Z,25.80
2023-05-22T16:25:53.525Z,25.37
2023-05-22T16:28:38.709Z,17.40
2023-05-22T16:31:24.090Z,16.50
2023-05-22T16:34:09.754Z,14.17
2023-05-22T16:36:55.001Z,16.17
2023-05-22T16:39:41.365Z,27.20
2023-05-22T16:42:27.210Z,21.97
2023-05-22T16:45:15.999Z,28.43
2023-05-22T16:48:01.981Z,14.37
2023-05-22T16:50:47.265Z,18.47
2023-05-22T16:53:33.229Z,16.73
2023-05-22T16:56:20.685Z,15.63
2023-05-22T16:59:06.207Z,13.33
2023-05-22T17:01:51.537Z,17.97
2023-05-22T17:04:37.251Z,16.40
2023-05-22T17:07:22.696Z,14.30
2023-05-22T17:10:08.753Z,19.73
2023-05-22T17:12:54.281Z,15.10
2023-05-22T17:15:39.998Z,14.63
2023-05-22T17:18:25.816Z,18.63
2023-05-22T17:21:11.130Z,14.80
2023-05-22T17:23:57.172Z,14.40
2023-05-22T17:26:44.244Z,13.73
2023-05-22T17:29:29.929Z,13.53
2023-05-22T17:32:15.482Z,12.97
2023-05-22T17:35:01.735Z,11.83
2023-05-22T17:37:47.239Z,8.73
2023-05-22T17:40:44.019Z,8.93
2023-05-22T17:43:47.388Z,12.70
2023-05-22T17:46:41.846Z,10.83
2023-05-22T17:49:28.497Z,8.43
2023-05-22T17:52:14.992Z,8.63
2023-05-22T17:55:26.119Z,10.43
2023-05-22T17:58:11.878Z,8.77
2023-05-22T18:00:59.924Z,10.03
2023-05-22T18:03:46.087Z,7.90
2023-05-22T18:06:31.650Z,7.17
2023-05-22T18:09:41.061Z,8.53
2023-05-22T18:12:31.691Z,9.30
2023-05-22T18:15:17.890Z,5.97
2023-05-22T18:18:03.913Z,6.97
2023-05-22T18:20:49.629Z,6.53
2023-05-22T18:23:35.511Z,7.73
2023-05-22T18:26:20.604Z,8.70
2023-05-22T18:29:05.991Z,8.37
2023-05-22T18:31:53.146Z,9.67
2023-05-22T18:34:39.572Z,7.50
2023-05-22T18:37:24.941Z,7.10
2023-05-22T18:40:12.221Z,7.00
2023-05-22T18:42:57.889Z,7.67
2023-05-22T18:45:44.615Z,8.30
2023-05-22T18:48:31.065Z,6.20
2023-05-22T18:51:19.858Z,6.60
2023-05-22T18:54:05.433Z,9.60
2023-05-22T18:56:51.113Z,8.10
2023-05-22T18:59:37.328Z,4.97
2023-05-22T19:02:23.032Z,6.83
2023-05-22T19:05:08.682Z,5.83
2023-05-22T19:07:53.988Z,8.77
2023-05-22T19:10:39.284Z,6.07
2023-05-22T19:13:24.971Z,8.17
2023-05-22T19:16:11.100Z,5.57
2023-05-22T19:18:56.527Z,7.50
2023-05-22T19:21:42.747Z,7.83
2023-05-22T19:24:28.529Z,5.80
2023-05-22T19:27:13.847Z,7.53
2023-05-22T19:29:59.282Z,6.47
2023-05-22T19:32:45.390Z,7.20
2023-05-22T19:35:30.981Z,5.50
2023-05-22T19:38:16.631Z,6.97
2023-05-22T19:41:02.109Z,6.97
2023-05-22T19:43:47.623Z,7.40
2023-05-22T19:46:32.885Z,5.23
2023-05-22T19:49:19.019Z,6.53
2023-05-22T19:52:05.791Z,6.60
2023-05-22T19:54:51.168Z,7.10
2023-05-22T19:57:36.972Z,5.97
2023-05-22T20:00:22.857Z,7.23
2023-05-22T20:03:08.511Z,5.87
2023-05-22T20:05:54.311Z,7.47
2023-05-22T20:08:41.340Z,7.20
2023-05-22T20:11:28.912Z,5.27
2023-05-22T20:14:14.422Z,8.33
2023-05-22T20:16:59.576Z,8.30
2023-05-22T20:19:45.208Z,10.97
2023-05-22T20:22:30.731Z,5.77
2023-05-22T20:25:17.259Z,6.80
2023-05-22T20:28:03.766Z,7.03
2023-05-22T20:30:49.768Z,7.73
2023-05-22T20:33:35.771Z,6.07
2023-05-22T20:36:22.414Z,9.00
2023-05-22T20:39:09.130Z,8.80
2023-05-22T20:41:54.395Z,5.83
2023-05-22T20:44:39.609Z,7.10
2023-05-22T20:47:24.935Z,5.87
2023-05-22T20:50:11.311Z,5.73
2023-05-22T20:52:57.081Z,6.00
2023-05-22T20:55:42.927Z,7.50
2023-05-22T20:58:28.508Z,8.40
2023-05-22T21:01:13.893Z,7.00
2023-05-22T21:03:59.114Z,5.20
2023-05-22T21:06:44.407Z,6.13
2023-05-22T21:09:29.691Z,5.10
2023-05-22T21:12:14.862Z,6.53
2023-05-22T21:15:00.188Z,5.90
2023-05-22T21:17:45.610Z,8.13
2023-05-22T21:20:30.837Z,5.30
2023-05-22T21:23:16.177Z,7.60
2023-05-22T21:26:02.309Z,6.10
2023-05-22T21:28:47.706Z,5.03
2023-05-22T21:31:35.350Z,4.97
2023-05-22T21:34:21.292Z,6.67
2023-05-22T21:37:06.820Z,6.00
2023-05-22T21:39:51.936Z,6.20
2023-05-22T21:42:46.521Z,6.90
2023-05-22T21:45:32.503Z,5.77
2023-05-22T21:48:17.950Z,5.77
2023-05-22T21:51:03.114Z,8.97
2023-05-22T21:53:48.375Z,6.53
2023-05-22T21:56:33.789Z,5.50
2023-05-22T21:59:19.019Z,5.40
2023-05-22T22:02:04.486Z,7.53
2023-05-22T22:04:49.598Z,7.90
2023-05-22T22:07:34.917Z,7.27
2023-05-22T22:10:20.240Z,7.60
2023-05-22T22:13:05.825Z,8.13
2023-05-22T22:15:51.230Z,6.10
2023-05-22T22:18:37.094Z,6.33
2023-05-22T22:21:22.394Z,6.33
2023-05-22T22:24:07.649Z,7.47
2023-05-22T22:26:53.129Z,7.97
2023-05-22T22:29:38.550Z,5.63
2023-05-22T22:32:23.705Z,10.07
2023-05-22T22:35:10.353Z,7.17
2023-05-22T22:37:55.768Z,5.17
2023-05-22T22:40:41.174Z,5.40
2023-05-22T22:43:26.874Z,5.23
2023-05-22T22:46:12.244Z,4.93
2023-05-22T22:48:58.879Z,6.20
2023-05-22T22:51:44.867Z,7.23
2023-05-22T22:54:30.465Z,6.70
2023-05-22T22:57:15.807Z,5.57
2023-05-22T23:00:01.100Z,5.30
2023-05-22T23:02:46.533Z,4.87
2023-05-22T23:05:32.410Z,6.83
2023-05-22T23:08:17.574Z,6.87
2023-05-22T23:11:02.998Z,7.87
2023-05-22T23:13:48.248Z,5.07
2023-05-22T23:16:38.169Z,6.23
2023-05-22T23:19:24.103Z,7.07
2023-05-22T23:22:09.904Z,5.73
2023-05-22T23:24:55.186Z,5.57
2023-05-22T23:27:40.341Z,5.27
2023-05-22T23:30:25.776Z,4.67
2023-05-22T23:33:11.645Z,5.10
2023-05-22T23:35:56.778Z,7.00
2023-05-22T23:38:42.082Z,6.47
2023-05-22T23:41:27.588Z,5.80
2023-05-22T23:44:13.203Z,5.97
2023-05-22T23:46:58.522Z,5.73
2023-05-22T23:49:43.824Z,7.73
2023-05-22T23:52:29.097Z,5.17
2023-05-22T23:55:14.200Z,7.20
2023-05-22T23:57:59.622Z,5.07
